createdAt,value
2022-08-24T00:05:04.829Z,0
2022-08-24T00:10:37.405Z,0
2022-08-24T00:16:00.134Z,0
2022-08-24T00:21:25.749Z,0
2022-08-24T00:26:50.848Z,0
2022-08-24T00:37:48.109Z,0
2022-08-24T00:43:13.413Z,0
2022-08-24T00:48:38.589Z,0
2022-08-24T00:54:03.639Z,0
2022-08-24T00:59:26.097Z,0
2022-08-24T01:04:49.548Z,0
2022-08-24T01:10:12.229Z,0
2022-08-24T01:15:34.802Z,0
2022-08-24T01:20:57.401Z,0
2022-08-24T01:26:20.391Z,0
2022-08-24T01:31:43.285Z,0
2022-08-24T01:37:06.450Z,0
2022-08-24T01:53:23.229Z,0
2022-08-24T01:58:45.766Z,0
2022-08-24T02:04:09.830Z,0
2022-08-24T02:09:33.105Z,0
2022-08-24T02:14:55.869Z,0
2022-08-24T02:20:18.474Z,0
2022-08-24T02:31:06.627Z,0
2022-08-24T02:36:32.137Z,0
2022-08-24T02:41:54.931Z,0
2022-08-24T02:47:20.316Z,0
2022-08-24T02:52:43.056Z,0
2022-08-24T02:58:12.516Z,0
2022-08-24T03:03:34.935Z,0
2022-08-24T03:08:57.636Z,0
2022-08-24T03:14:23.388Z,0
2022-08-24T03:19:45.915Z,0
2022-08-24T03:25:08.365Z,0
2022-08-24T03:30:31.416Z,0
2022-08-24T03:35:56.163Z,0
2022-08-24T03:41:31.970Z,0
2022-08-24T03:46:59.422Z,0
2022-08-24T03:52:22.142Z,0
2022-08-24T03:57:48.562Z,0
2022-08-24T04:03:11.106Z,0
2022-08-24T04:08:33.888Z,0
2022-08-24T04:13:56.421Z,0
2022-08-24T04:19:18.973Z,0
2022-08-24T04:24:41.514Z,2
2022-08-24T04:30:49.363Z,10
2022-08-24T04:36:11.656Z,15.8
2022-08-24T04:42:12.697Z,21.1
2022-08-24T04:47:35.736Z,23.3
2022-08-24T04:52:58.312Z,25.5
2022-08-24T04:58:22.484Z,36
2022-08-24T05:03:45.444Z,38.7
2022-08-24T05:09:07.887Z,45.5
2022-08-24T05:14:30.692Z,50.8
2022-08-24T05:19:53.161Z,64.4
2022-08-24T05:25:15.843Z,85.1
2022-08-24T05:30:43.061Z,70.6
2022-08-24T05:36:05.716Z,99.4
2022-08-24T05:46:51.211Z,235.5
2022-08-24T05:52:14.451Z,177.4
2022-08-24T05:57:40.194Z,175
2022-08-24T06:03:02.940Z,216.9
2022-08-24T06:08:26.145Z,287.3
2022-08-24T06:19:44.579Z,196.1
2022-08-24T06:25:07.527Z,348.8
2022-08-24T06:30:31.087Z,259.6
2022-08-24T06:35:54.121Z,1370.5
2022-08-24T06:41:18.304Z,756.3
2022-08-24T06:46:41.093Z,1229.5
2022-08-24T06:52:04.371Z,1965.8
2022-08-24T06:57:27.311Z,417
2022-08-24T07:02:50.835Z,2451.5
2022-08-24T07:08:14.520Z,809.8
2022-08-24T07:13:47.641Z,551.2
2022-08-24T07:19:13.496Z,315.6
2022-08-24T07:24:38.303Z,520.7
2022-08-24T07:30:27.777Z,343.6
2022-08-24T07:35:56.231Z,440.4
2022-08-24T07:47:56.254Z,905.7
2022-08-24T07:53:32.372Z,1402.9
2022-08-24T07:59:17.183Z,1645.5
2022-08-24T08:04:41.103Z,1696.9
2022-08-24T08:10:04.145Z,1627
2022-08-24T08:15:27.421Z,1921.3
2022-08-24T08:20:51.905Z,960.8
2022-08-24T08:26:13.706Z,1584.3
2022-08-24T08:31:36.739Z,1030.9
2022-08-24T08:36:59.038Z,765
2022-08-24T08:42:21.470Z,852.8
2022-08-24T08:47:44.121Z,1074.1
2022-08-24T08:53:06.959Z,1116.2
2022-08-24T08:58:30.133Z,986
2022-08-24T09:03:53.020Z,1246.4
2022-08-24T09:09:16.730Z,1551
2022-08-24T09:14:41.644Z,2305.5
2022-08-24T09:20:04.839Z,2015.7
2022-08-24T09:25:28.259Z,2181.7
2022-08-24T09:30:51.206Z,2426.8
2022-08-24T09:36:14.200Z,1976.3
2022-08-24T09:52:59.482Z,2202.6
2022-08-24T09:58:22.313Z,1159.2
2022-08-24T10:03:44.921Z,1775
2022-08-24T10:09:07.154Z,1703
2022-08-24T10:14:29.733Z,741.3
2022-08-24T10:19:51.308Z,1164.3
2022-08-24T10:25:13.677Z,1483.8
2022-08-24T10:30:48.079Z,2436
2022-08-24T10:36:11.534Z,2833.7
2022-08-24T10:41:39.529Z,2745.1
2022-08-24T10:47:02.120Z,2459.6
2022-08-24T10:53:16.600Z,1664.9
2022-08-24T10:58:37.595Z,749.9
2022-08-24T11:03:58.622Z,1005
2022-08-24T11:09:22.309Z,1931.4
2022-08-24T11:14:46.278Z,1829
2022-08-24T11:20:10.499Z,2393.4
2022-08-24T11:31:05.465Z,2248.8
2022-08-24T11:36:28.886Z,2007.1
2022-08-24T11:42:14.162Z,2208.6
2022-08-24T11:47:36.696Z,1955.7
2022-08-24T11:53:00.032Z,2178.5
2022-08-24T11:58:22.851Z,2140.9
2022-08-24T12:03:52.413Z,2026.6
2022-08-24T12:09:18.570Z,1860.8
2022-08-24T12:14:43.747Z,1847.7
2022-08-24T12:25:39.042Z,1879.3
2022-08-24T12:31:01.343Z,2195.5
2022-08-24T12:36:46.340Z,1643.1
2022-08-24T12:48:15.257Z,2016.6
2022-08-24T12:53:37.410Z,1990.4
2022-08-24T12:59:51.540Z,2360.4
2022-08-24T13:05:15.683Z,2076.6
2022-08-24T13:16:25.631Z,2345.3
2022-08-24T13:22:15.248Z,2218.8
2022-08-24T13:27:37.716Z,2349.7
2022-08-24T13:33:00.046Z,2279.9
2022-08-24T13:38:22.682Z,392.7
2022-08-24T13:43:44.437Z,2357.7
2022-08-24T13:49:07.192Z,2187.5
2022-08-24T13:54:47.079Z,2366.8
2022-08-24T14:00:12.829Z,1938.5
2022-08-24T14:05:36.499Z,602.8
2022-08-24T14:10:59.845Z,2268.7
2022-08-24T14:16:34.029Z,2234.6
2022-08-24T14:21:58.098Z,2288.2
2022-08-24T14:27:20.639Z,2263.2
2022-08-24T14:33:03.289Z,2265.4
2022-08-24T14:38:25.941Z,2113.1
2022-08-24T14:43:48.537Z,2087.1
2022-08-24T14:49:11.187Z,1203.5
2022-08-24T14:54:32.155Z,328.4
2022-08-24T14:59:53.900Z,295.3
2022-08-24T15:10:54.706Z,241
2022-08-24T15:16:17.247Z,266.3
2022-08-24T15:21:40.198Z,253.1
2022-08-24T15:32:32.701Z,192.9
2022-08-24T15:37:59.903Z,169.8
2022-08-24T15:43:22.571Z,164.3
2022-08-24T15:48:45.000Z,154.8
2022-08-24T15:59:28.882Z,147.7
2022-08-24T16:04:51.685Z,145.1
2022-08-24T16:10:14.281Z,153.7
2022-08-24T16:15:36.985Z,145
2022-08-24T16:20:59.505Z,137.5
2022-08-24T16:26:22.149Z,132.9
2022-08-24T16:31:45.135Z,152.2
2022-08-24T16:37:13.568Z,144.1
2022-08-24T16:42:35.981Z,120.5
2022-08-24T16:47:58.449Z,110.1
2022-08-24T16:58:43.793Z,105
2022-08-24T17:04:06.198Z,99.7
2022-08-24T17:09:28.604Z,98.7
2022-08-24T17:14:51.161Z,88.2
2022-08-24T17:20:13.548Z,77.3
2022-08-24T17:25:36.683Z,75
2022-08-24T17:30:59.479Z,67.7
2022-08-24T17:36:23.915Z,60.7
2022-08-24T17:41:46.439Z,53.3
2022-08-24T17:47:08.939Z,47.2
2022-08-24T17:58:14.139Z,35.1
2022-08-24T18:03:36.844Z,33.3
2022-08-24T18:09:00.124Z,30.6
2022-08-24T18:14:22.572Z,26.9
2022-08-24T18:20:06.068Z,21.6
2022-08-24T18:25:29.551Z,19.9
2022-08-24T18:30:52.524Z,14.3
2022-08-24T18:36:15.495Z,13
2022-08-24T18:41:37.975Z,8
2022-08-24T18:47:01.013Z,2
2022-08-24T18:52:23.480Z,0
2022-08-24T18:57:51.436Z,0
2022-08-24T19:03:17.696Z,0
2022-08-24T19:08:43.674Z,0
2022-08-24T19:14:06.552Z,0
2022-08-24T19:24:40.372Z,0
2022-08-24T19:30:03.232Z,0
2022-08-24T19:35:25.638Z,0
2022-08-24T19:40:50.626Z,0
2022-08-24T19:46:13.495Z,0
2022-08-24T19:56:58.350Z,0
2022-08-24T20:02:21.993Z,0
2022-08-24T20:07:44.936Z,0
2022-08-24T20:13:07.593Z,0
2022-08-24T20:18:30.763Z,0
2022-08-24T20:23:57.530Z,0
2022-08-24T20:29:21.025Z,0
2022-08-24T20:34:43.735Z,0
2022-08-24T20:40:06.874Z,0
2022-08-24T20:45:31.264Z,0
2022-08-24T20:50:56.333Z,0
2022-08-24T20:56:28.706Z,0
2022-08-24T21:01:54.265Z,0
2022-08-24T21:07:19.810Z,0
2022-08-24T21:12:44.757Z,0
2022-08-24T21:18:07.603Z,0
2022-08-24T21:23:30.291Z,0
2022-08-24T21:28:53.864Z,0
2022-08-24T21:45:19.491Z,0
2022-08-24T21:50:48.431Z,0
2022-08-24T21:56:13.813Z,0
2022-08-24T22:01:36.506Z,0
2022-08-24T22:06:59.591Z,0
2022-08-24T22:12:39.751Z,0
2022-08-24T22:18:02.503Z,0
2022-08-24T22:23:24.774Z,0
2022-08-24T22:28:47.406Z,0
2022-08-24T22:34:21.121Z,0
2022-08-24T22:39:43.638Z,0
2022-08-24T22:45:05.992Z,0
2022-08-24T22:50:28.575Z,0
2022-08-24T22:55:53.791Z,0
2022-08-24T23:01:16.961Z,0
2022-08-24T23:06:39.538Z,0
2022-08-24T23:12:01.972Z,0
2022-08-24T23:17:27.347Z,0
2022-08-24T23:22:49.931Z,0
2022-08-24T23:28:15.291Z,0
2022-08-24T23:33:39.848Z,0
2022-08-24T23:39:02.474Z,0
2022-08-24T23:44:27.525Z,0
2022-08-24T23:49:49.911Z,0
2022-08-24T23:55:22.275Z,0
